createdAt,value
2023-10-20T00:02:05.653Z,99.90
2023-10-20T00:04:34.819Z,99.90
2023-10-20T00:07:04.072Z,99.90
2023-10-20T00:09:32.309Z,99.90
2023-10-20T00:12:00.212Z,99.90
2023-10-20T00:14:27.979Z,99.90
2023-10-20T00:16:55.854Z,99.90
2023-10-20T00:19:23.888Z,99.90
2023-10-20T00:21:53.304Z,99.90
2023-10-20T00:24:22.577Z,99.90
2023-10-20T00:26:50.935Z,99.90
2023-10-20T00:29:19.597Z,99.90
2023-10-20T00:31:47.436Z,99.90
2023-10-20T00:34:14.961Z,99.90
2023-10-20T00:36:42.473Z,99.90
2023-10-20T00:39:10.623Z,99.90
2023-10-20T00:41:38.908Z,99.90
2023-10-20T00:44:06.544Z,99.90
2023-10-20T00:46:35.358Z,99.90
2023-10-20T00:49:03.995Z,99.90
2023-10-20T00:51:32.360Z,99.90
2023-10-20T00:54:01.528Z,99.90
2023-10-20T00:56:31.140Z,99.90
2023-10-20T00:58:59.744Z,99.90
2023-10-20T01:01:27.599Z,99.90
2023-10-20T01:03:55.674Z,99.90
2023-10-20T01:06:23.669Z,99.90
2023-10-20T01:08:56.812Z,99.90
2023-10-20T01:11:24.956Z,99.90
2023-10-20T01:13:52.894Z,99.90
2023-10-20T01:16:21.437Z,99.90
2023-10-20T01:18:49.123Z,99.90
2023-10-20T01:21:16.964Z,99.90
2023-10-20T01:23:45.543Z,99.90
2023-10-20T01:26:13.381Z,99.90
2023-10-20T01:28:41.186Z,99.90
2023-10-20T01:31:08.731Z,99.90
2023-10-20T01:33:36.377Z,99.90
2023-10-20T01:36:04.161Z,99.90
2023-10-20T01:38:31.719Z,99.90
2023-10-20T01:40:59.466Z,99.90
2023-10-20T01:43:27.174Z,99.90
2023-10-20T01:45:54.995Z,99.90
2023-10-20T01:48:23.681Z,99.90
2023-10-20T01:50:51.341Z,99.90
2023-10-20T01:53:19.187Z,99.90
2023-10-20T01:55:50.894Z,99.90
2023-10-20T01:58:20.096Z,99.90
2023-10-20T02:00:52.095Z,99.90
2023-10-20T02:03:21.033Z,99.90
2023-10-20T02:05:49.074Z,99.90
2023-10-20T02:08:16.962Z,99.90
2023-10-20T02:10:46.106Z,99.90
2023-10-20T02:13:13.771Z,99.90
2023-10-20T02:15:49.684Z,99.90
2023-10-20T02:18:18.399Z,99.90
2023-10-20T02:21:05.261Z,99.90
2023-10-20T02:23:33.816Z,99.90
2023-10-20T02:26:04.028Z,99.90
2023-10-20T02:28:31.782Z,99.90
2023-10-20T02:31:01.741Z,99.90
2023-10-20T02:33:29.575Z,99.90
2023-10-20T02:35:57.256Z,99.90
2023-10-20T02:38:25.249Z,99.90
2023-10-20T02:40:54.516Z,99.90
2023-10-20T02:43:25.648Z,99.90
2023-10-20T02:45:54.164Z,99.90
2023-10-20T02:48:25.312Z,99.90
2023-10-20T02:50:53.007Z,99.90
2023-10-20T02:53:20.895Z,99.90
2023-10-20T02:55:50.827Z,99.90
2023-10-20T02:58:18.840Z,99.90
2023-10-20T03:00:51.291Z,99.90
2023-10-20T03:03:19.355Z,99.90
2023-10-20T03:05:47.397Z,99.90
2023-10-20T03:08:15.114Z,99.90
2023-10-20T03:10:44.238Z,99.90
2023-10-20T03:13:11.850Z,99.90
2023-10-20T03:15:39.566Z,99.90
2023-10-20T03:18:07.522Z,99.90
2023-10-20T03:20:37.715Z,99.90
2023-10-20T03:23:10.463Z,99.90
2023-10-20T03:25:44.149Z,99.90
2023-10-20T03:28:12.388Z,99.90
2023-10-20T03:30:44.417Z,99.90
2023-10-20T03:33:14.370Z,99.90
2023-10-20T03:35:42.335Z,99.90
2023-10-20T03:38:10.855Z,99.90
2023-10-20T03:40:47.374Z,99.90
2023-10-20T03:43:14.912Z,99.90
2023-10-20T03:45:49.920Z,99.90
2023-10-20T03:48:18.047Z,99.90
2023-10-20T03:50:47.750Z,99.90
2023-10-20T03:53:28.276Z,99.90
2023-10-20T03:56:00.594Z,99.90
2023-10-20T03:58:30.454Z,99.90
2023-10-20T04:00:59.763Z,99.90
2023-10-20T04:03:27.420Z,99.90
2023-10-20T04:05:55.399Z,99.90
2023-10-20T04:08:24.757Z,99.90
2023-10-20T04:10:59.241Z,99.90
2023-10-20T04:13:27.108Z,99.90
2023-10-20T04:15:55.126Z,99.90
2023-10-20T04:18:25.999Z,99.90
2023-10-20T04:20:58.960Z,99.90
2023-10-20T04:23:27.548Z,99.90
2023-10-20T04:25:56.380Z,99.90
2023-10-20T04:28:39.782Z,99.90
2023-10-20T04:31:26.352Z,99.90
2023-10-20T04:34:14.715Z,99.90
2023-10-20T04:37:01.236Z,99.90
2023-10-20T04:40:07.808Z,99.90
2023-10-20T04:42:35.761Z,99.90
2023-10-20T04:45:22.599Z,99.90
2023-10-20T04:48:08.828Z,99.90
2023-10-20T04:50:56.647Z,99.90
2023-10-20T04:53:42.839Z,99.90
2023-10-20T04:56:17.536Z,99.90
2023-10-20T04:59:00.710Z,99.90
2023-10-20T05:01:31.624Z,99.90
2023-10-20T05:03:59.702Z,99.90
2023-10-20T05:06:27.859Z,99.90
2023-10-20T05:08:55.697Z,99.90
2023-10-20T05:11:23.513Z,99.90
2023-10-20T05:13:51.440Z,99.90
2023-10-20T05:16:23.023Z,99.90
2023-10-20T05:18:51.862Z,99.90
2023-10-20T05:21:19.719Z,99.90
2023-10-20T05:23:47.779Z,99.90
2023-10-20T05:26:16.054Z,99.90
2023-10-20T05:28:43.747Z,99.90
2023-10-20T05:31:11.373Z,99.90
2023-10-20T05:33:38.963Z,99.90
2023-10-20T05:36:06.850Z,99.90
2023-10-20T05:38:34.592Z,99.90
2023-10-20T05:41:02.390Z,99.90
2023-10-20T05:43:31.426Z,99.90
2023-10-20T05:45:59.237Z,99.90
2023-10-20T05:48:27.022Z,99.90
2023-10-20T05:50:58.991Z,99.90
2023-10-20T05:53:26.928Z,99.90
2023-10-20T05:55:54.560Z,99.90
2023-10-20T05:58:23.430Z,99.90
2023-10-20T06:01:07.181Z,99.90
2023-10-20T06:03:34.879Z,99.90
2023-10-20T06:06:04.773Z,99.90
2023-10-20T06:08:32.499Z,99.90
2023-10-20T06:11:04.817Z,99.90
2023-10-20T06:13:35.781Z,99.90
2023-10-20T06:16:05.879Z,99.90
2023-10-20T06:18:36.493Z,99.90
2023-10-20T06:21:11.633Z,99.90
2023-10-20T06:23:39.344Z,99.90
2023-10-20T06:26:07.364Z,99.90
2023-10-20T06:28:35.208Z,99.90
2023-10-20T06:31:17.446Z,99.90
2023-10-20T06:33:45.744Z,99.90
2023-10-20T06:36:19.988Z,99.90
2023-10-20T06:38:47.448Z,99.90
2023-10-20T06:41:15.038Z,99.90
2023-10-20T06:43:42.620Z,99.90
2023-10-20T06:46:10.944Z,99.90
2023-10-20T06:48:38.654Z,99.90
2023-10-20T06:51:06.177Z,99.90
2023-10-20T06:53:33.694Z,99.90
2023-10-20T06:56:14.578Z,99.90
2023-10-20T06:58:43.410Z,99.90
2023-10-20T07:01:10.937Z,99.90
2023-10-20T07:03:38.577Z,99.90
2023-10-20T07:06:10.400Z,99.90
2023-10-20T07:08:38.802Z,99.90
2023-10-20T07:11:06.700Z,99.90
2023-10-20T07:13:34.867Z,99.90
2023-10-20T07:16:02.493Z,99.90
2023-10-20T07:18:30.110Z,99.90
2023-10-20T07:23:45.804Z,99.90
2023-10-20T07:26:18.823Z,99.90
2023-10-20T07:28:47.049Z,99.90
2023-10-20T07:31:16.546Z,99.90
2023-10-20T07:33:44.340Z,99.90
2023-10-20T07:36:12.082Z,99.90
2023-10-20T07:38:40.160Z,99.90
2023-10-20T07:41:10.862Z,99.90
2023-10-20T07:43:40.121Z,99.90
2023-10-20T07:46:07.899Z,99.90
2023-10-20T07:48:36.590Z,99.90
2023-10-20T07:51:04.745Z,99.90
2023-10-20T07:53:32.351Z,99.90
2023-10-20T07:56:00.169Z,99.90
2023-10-20T07:58:28.807Z,99.90
2023-10-20T08:00:56.551Z,99.90
2023-10-20T08:03:24.688Z,99.90
2023-10-20T08:05:52.714Z,99.90
2023-10-20T08:08:20.568Z,99.90
2023-10-20T08:10:49.044Z,99.90
2023-10-20T08:13:18.429Z,99.90
2023-10-20T08:15:46.033Z,99.90
2023-10-20T08:18:13.933Z,99.90
2023-10-20T08:20:42.064Z,99.90
2023-10-20T08:23:10.048Z,99.90
2023-10-20T08:25:39.298Z,99.90
2023-10-20T08:28:08.861Z,99.90
2023-10-20T08:30:36.676Z,99.90
2023-10-20T08:33:05.010Z,99.90
2023-10-20T08:35:32.774Z,99.90
2023-10-20T08:38:00.339Z,99.90
2023-10-20T08:40:41.815Z,99.90
2023-10-20T08:43:21.425Z,99.90
2023-10-20T08:45:49.218Z,99.90
2023-10-20T08:48:17.182Z,99.90
2023-10-20T08:50:47.457Z,99.90
2023-10-20T08:53:17.110Z,99.90
2023-10-20T08:55:45.652Z,99.90
2023-10-20T08:58:13.290Z,99.90
2023-10-20T09:00:51.339Z,99.90
2023-10-20T09:03:27.179Z,99.90
2023-10-20T09:06:07.173Z,99.90
2023-10-20T09:08:35.570Z,99.90
2023-10-20T09:11:06.934Z,99.90
2023-10-20T09:13:38.749Z,99.90
2023-10-20T09:16:09.002Z,99.90
2023-10-20T09:18:51.356Z,99.90
2023-10-20T09:21:29.806Z,99.90
2023-10-20T09:24:04.094Z,99.90
2023-10-20T09:26:34.191Z,99.90
2023-10-20T09:29:02.663Z,99.90
2023-10-20T09:31:30.258Z,99.90
2023-10-20T09:33:59.102Z,99.90
2023-10-20T09:36:31.180Z,99.90
2023-10-20T09:39:01.044Z,99.90
2023-10-20T09:41:31.044Z,99.90
2023-10-20T09:44:26.830Z,99.90
2023-10-20T09:47:07.512Z,99.90
2023-10-20T09:49:36.734Z,99.90
2023-10-20T09:52:06.191Z,99.90
2023-10-20T09:54:35.860Z,99.90
2023-10-20T09:57:07.172Z,99.90
2023-10-20T09:59:35.611Z,99.90
2023-10-20T10:02:03.403Z,99.90
2023-10-20T10:04:40.397Z,99.90
2023-10-20T10:07:10.066Z,99.90
2023-10-20T10:09:44.671Z,99.90
2023-10-20T10:12:16.632Z,99.90
2023-10-20T10:14:56.850Z,99.90
2023-10-20T10:17:27.761Z,99.90
2023-10-20T10:19:57.629Z,99.90
2023-10-20T10:22:30.503Z,99.90
2023-10-20T10:25:01.230Z,99.90
2023-10-20T10:27:30.769Z,99.90
2023-10-20T10:30:06.861Z,99.90
2023-10-20T10:32:46.370Z,99.90
2023-10-20T10:35:18.790Z,99.90
2023-10-20T10:37:46.679Z,99.90
2023-10-20T10:40:20.447Z,99.90
2023-10-20T10:42:53.162Z,99.90
2023-10-20T10:45:28.492Z,99.90
2023-10-20T10:48:19.331Z,99.90
2023-10-20T10:50:49.179Z,99.90
2023-10-20T10:53:17.111Z,99.90
2023-10-20T10:55:45.407Z,99.90
2023-10-20T10:58:15.616Z,99.90
2023-10-20T11:00:47.419Z,99.90
2023-10-20T11:03:15.757Z,99.90
2023-10-20T11:05:44.464Z,99.90
2023-10-20T11:08:15.614Z,99.90
2023-10-20T11:10:44.809Z,99.90
2023-10-20T11:13:14.629Z,99.90
2023-10-20T11:15:44.564Z,99.90
2023-10-20T11:18:12.780Z,99.90
2023-10-20T11:20:45.011Z,99.90
2023-10-20T11:23:13.986Z,99.90
2023-10-20T11:25:43.267Z,99.90
2023-10-20T11:28:11.071Z,99.90
2023-10-20T11:30:40.321Z,99.90
2023-10-20T11:33:14.216Z,99.90
2023-10-20T11:35:47.281Z,99.90
2023-10-20T11:38:18.246Z,99.90
2023-10-20T11:40:49.082Z,99.90
2023-10-20T11:43:17.266Z,99.90
2023-10-20T11:45:44.845Z,99.90
2023-10-20T11:48:12.652Z,99.90
2023-10-20T11:50:41.111Z,99.90
2023-10-20T11:53:08.670Z,99.90
2023-10-20T11:55:36.581Z,99.90
2023-10-20T11:58:05.346Z,99.90
2023-10-20T12:00:33.267Z,99.90
2023-10-20T12:03:00.869Z,99.90
2023-10-20T12:05:28.448Z,99.90
2023-10-20T12:07:55.999Z,99.90
2023-10-20T12:10:25.183Z,99.90
2023-10-20T12:12:53.073Z,99.90
2023-10-20T12:15:20.781Z,99.90
2023-10-20T12:17:48.693Z,99.90
2023-10-20T12:20:16.635Z,99.90
2023-10-20T12:22:44.200Z,99.90
2023-10-20T12:25:11.987Z,99.90
2023-10-20T12:27:39.711Z,99.90
2023-10-20T12:30:10.245Z,99.90
2023-10-20T12:32:38.398Z,99.90
2023-10-20T12:35:06.367Z,99.90
2023-10-20T12:37:34.116Z,99.90
2023-10-20T12:40:01.639Z,99.90
2023-10-20T12:42:29.432Z,99.90
2023-10-20T12:44:57.195Z,99.90
2023-10-20T12:47:24.958Z,99.90
2023-10-20T12:49:55.923Z,99.90
2023-10-20T12:52:23.920Z,99.90
2023-10-20T12:54:53.605Z,99.90
2023-10-20T12:57:21.269Z,99.90
2023-10-20T12:59:48.918Z,99.90
2023-10-20T13:02:16.778Z,99.90
2023-10-20T13:04:44.625Z,99.90
2023-10-20T13:07:15.016Z,99.90
2023-10-20T13:09:42.809Z,99.90
2023-10-20T13:12:10.798Z,99.90
2023-10-20T13:14:38.494Z,99.90
2023-10-20T13:17:06.228Z,99.90
2023-10-20T13:19:35.904Z,99.90
2023-10-20T13:22:04.953Z,99.90
2023-10-20T13:24:33.934Z,99.90
2023-10-20T13:27:01.699Z,99.90
2023-10-20T13:29:29.483Z,99.90
2023-10-20T13:31:56.950Z,99.90
2023-10-20T13:34:25.276Z,99.90
2023-10-20T13:36:52.829Z,99.90
2023-10-20T13:39:31.324Z,99.90
2023-10-20T13:41:59.677Z,99.90
2023-10-20T13:44:27.681Z,99.90
2023-10-20T13:46:55.374Z,99.90
2023-10-20T13:49:22.957Z,99.90
2023-10-20T13:51:50.461Z,99.90
2023-10-20T13:54:18.128Z,99.90
2023-10-20T13:56:45.702Z,99.90
2023-10-20T13:59:14.770Z,99.90
2023-10-20T14:01:42.963Z,99.90
2023-10-20T14:04:10.624Z,99.90
2023-10-20T14:06:38.594Z,99.90
2023-10-20T14:09:06.144Z,99.90
2023-10-20T14:11:33.982Z,99.90
2023-10-20T14:14:01.611Z,99.90
2023-10-20T14:16:29.358Z,99.90
2023-10-20T14:18:57.085Z,99.90
2023-10-20T14:21:24.710Z,99.90
2023-10-20T14:23:52.343Z,99.90
2023-10-20T14:26:19.898Z,99.90
2023-10-20T14:28:47.458Z,99.90
2023-10-20T14:31:15.388Z,99.90
2023-10-20T14:33:43.020Z,99.90
2023-10-20T14:36:23.996Z,99.90
2023-10-20T14:38:51.373Z,99.90
2023-10-20T14:41:18.904Z,99.90
2023-10-20T14:43:46.398Z,99.90
2023-10-20T14:46:14.400Z,99.80
2023-10-20T14:48:42.505Z,99.20
2023-10-20T14:51:11.881Z,98.40
2023-10-20T14:53:39.744Z,97.60
2023-10-20T14:56:08.073Z,97.60
2023-10-20T14:58:35.692Z,97.60
2023-10-20T15:01:03.250Z,97.10
2023-10-20T15:03:31.542Z,97.20
2023-10-20T15:06:02.647Z,96.40
2023-10-20T15:08:31.099Z,95.90
2023-10-20T15:10:59.179Z,95.20
2023-10-20T15:13:26.947Z,94.70
2023-10-20T15:16:02.488Z,94.30
2023-10-20T15:18:33.591Z,93.70
2023-10-20T15:21:05.140Z,93.50
2023-10-20T15:23:32.952Z,93.90
2023-10-20T15:26:03.754Z,93.60
2023-10-20T15:28:31.469Z,93.30
2023-10-20T15:30:59.003Z,92.60
2023-10-20T15:33:26.928Z,91.80
2023-10-20T15:35:54.784Z,91.60
2023-10-20T15:38:22.500Z,91.70
2023-10-20T15:40:53.320Z,91.50
2023-10-20T15:43:21.142Z,91.20
2023-10-20T15:45:48.654Z,91.50
2023-10-20T15:48:17.123Z,91.50
2023-10-20T15:50:45.922Z,91.70
2023-10-20T15:53:13.769Z,91.70
2023-10-20T15:55:42.672Z,91.90
2023-10-20T15:58:10.712Z,92.00
2023-10-20T16:00:38.602Z,92.00
2023-10-20T16:03:06.681Z,92.20
2023-10-20T16:05:34.402Z,92.40
2023-10-20T16:08:01.897Z,92.70
2023-10-20T16:10:29.394Z,93.00
2023-10-20T16:12:57.087Z,93.30
2023-10-20T16:15:24.648Z,93.60
2023-10-20T16:17:54.048Z,94.10
2023-10-20T16:20:21.810Z,94.40
2023-10-20T16:22:49.515Z,94.70
2023-10-20T16:25:17.457Z,94.90
2023-10-20T16:27:45.211Z,95.10
2023-10-20T16:30:13.269Z,95.30
2023-10-20T16:32:42.234Z,95.60
2023-10-20T16:35:10.580Z,95.90
2023-10-20T16:37:38.290Z,96.20
2023-10-20T16:40:07.408Z,96.40
2023-10-20T16:42:35.289Z,96.70
2023-10-20T16:45:08.113Z,97.00
2023-10-20T16:47:35.991Z,97.30
2023-10-20T16:50:04.883Z,97.50
2023-10-20T16:52:32.782Z,97.70
2023-10-20T16:55:00.415Z,97.90
2023-10-20T16:57:27.958Z,98.10
2023-10-20T16:59:55.649Z,98.20
2023-10-20T17:02:23.215Z,98.30
2023-10-20T17:04:51.149Z,98.50
2023-10-20T17:07:20.016Z,98.60
2023-10-20T17:09:47.666Z,98.80
2023-10-20T17:12:15.371Z,98.90
2023-10-20T17:14:43.469Z,99.10
2023-10-20T17:17:11.037Z,99.20
2023-10-20T17:19:38.962Z,99.40
2023-10-20T17:22:08.459Z,99.60
2023-10-20T17:24:36.046Z,99.70
2023-10-20T17:27:07.863Z,99.90
2023-10-20T17:29:35.805Z,99.90
2023-10-20T17:32:04.459Z,99.90
2023-10-20T17:34:32.152Z,99.90
2023-10-20T17:36:59.870Z,99.90
2023-10-20T17:39:27.559Z,99.90
2023-10-20T17:41:55.429Z,99.90
2023-10-20T17:44:23.184Z,99.90
2023-10-20T17:46:51.304Z,99.90
2023-10-20T17:49:19.558Z,99.90
2023-10-20T17:51:47.796Z,99.90
2023-10-20T17:54:15.392Z,99.90
2023-10-20T17:56:44.872Z,99.90
2023-10-20T17:59:12.516Z,99.90
2023-10-20T18:01:40.062Z,99.90
2023-10-20T18:04:07.850Z,99.90
2023-10-20T18:06:35.759Z,99.90
2023-10-20T18:09:08.371Z,99.90
2023-10-20T18:11:36.278Z,99.90
2023-10-20T18:14:04.062Z,99.90
2023-10-20T18:16:33.407Z,99.90
2023-10-20T18:19:01.034Z,99.90
2023-10-20T18:21:30.954Z,99.90
2023-10-20T18:23:59.986Z,99.90
2023-10-20T18:26:27.802Z,99.90
2023-10-20T18:28:55.673Z,99.90
2023-10-20T18:31:23.330Z,99.90
2023-10-20T18:33:52.459Z,99.90
2023-10-20T18:36:20.258Z,99.90
2023-10-20T18:38:49.065Z,99.90
2023-10-20T18:41:17.819Z,99.90
2023-10-20T18:43:46.016Z,99.90
2023-10-20T18:46:13.946Z,99.90
2023-10-20T18:48:42.219Z,99.90
2023-10-20T18:51:12.536Z,99.90
2023-10-20T18:53:42.074Z,99.90
2023-10-20T18:56:10.367Z,99.90
2023-10-20T18:58:38.202Z,99.90
2023-10-20T19:01:06.075Z,99.90
2023-10-20T19:03:35.123Z,99.90
2023-10-20T19:06:09.813Z,99.90
2023-10-20T19:08:38.789Z,99.90
2023-10-20T19:11:11.564Z,99.90
2023-10-20T19:13:39.649Z,99.90
2023-10-20T19:16:07.323Z,99.90
2023-10-20T19:18:35.295Z,99.90
2023-10-20T19:21:04.353Z,99.90
2023-10-20T19:23:32.198Z,99.90
2023-10-20T19:26:01.577Z,99.90
2023-10-20T19:28:30.722Z,99.90
2023-10-20T19:31:01.950Z,99.90
2023-10-20T19:33:32.749Z,99.90
2023-10-20T19:36:06.147Z,99.90
2023-10-20T19:38:34.018Z,99.90
2023-10-20T19:41:01.585Z,99.90
2023-10-20T19:43:29.158Z,99.90
2023-10-20T19:45:57.319Z,99.90
2023-10-20T19:48:25.204Z,99.90
2023-10-20T19:50:52.816Z,99.90
2023-10-20T19:53:20.792Z,99.90
2023-10-20T19:55:48.537Z,99.90
2023-10-20T19:58:16.076Z,99.90
2023-10-20T20:00:43.843Z,99.90
2023-10-20T20:03:12.021Z,99.90
2023-10-20T20:05:39.842Z,99.90
2023-10-20T20:08:07.467Z,99.90
2023-10-20T20:10:35.043Z,99.90
2023-10-20T20:13:02.636Z,99.90
2023-10-20T20:15:30.262Z,99.90
2023-10-20T20:17:59.020Z,99.90
2023-10-20T20:20:27.318Z,99.90
2023-10-20T20:22:54.856Z,99.90
2023-10-20T20:25:22.496Z,99.90
2023-10-20T20:27:49.992Z,99.90
2023-10-20T20:30:17.556Z,99.90
2023-10-20T20:32:45.629Z,99.90
2023-10-20T20:35:13.470Z,99.90
2023-10-20T20:37:41.233Z,99.90
2023-10-20T20:40:09.234Z,99.90
2023-10-20T20:42:37.053Z,99.90
2023-10-20T20:45:05.120Z,99.90
2023-10-20T20:47:32.952Z,99.90
2023-10-20T20:50:02.145Z,99.90
2023-10-20T20:52:30.065Z,99.90
2023-10-20T20:54:57.891Z,99.90
2023-10-20T20:57:26.521Z,99.90
2023-10-20T20:59:54.166Z,99.90
2023-10-20T21:02:21.734Z,99.90
2023-10-20T21:04:49.465Z,99.90
2023-10-20T21:07:17.047Z,99.90
2023-10-20T21:09:44.784Z,99.90
2023-10-20T21:12:12.435Z,99.90
2023-10-20T21:14:40.061Z,99.90
2023-10-20T21:17:08.886Z,99.90
2023-10-20T21:19:36.572Z,99.90
2023-10-20T21:22:04.344Z,99.90
2023-10-20T21:24:31.825Z,99.90
2023-10-20T21:26:59.346Z,99.90
2023-10-20T21:29:27.107Z,99.90
2023-10-20T21:31:55.021Z,99.90
2023-10-20T21:34:22.611Z,99.90
2023-10-20T21:36:50.251Z,99.90
2023-10-20T21:39:17.697Z,99.90
2023-10-20T21:41:45.264Z,99.90
2023-10-20T21:44:12.952Z,99.90
2023-10-20T21:46:41.139Z,99.90
2023-10-20T21:49:09.793Z,99.90
2023-10-20T21:51:37.490Z,99.90
2023-10-20T21:54:08.065Z,99.90
2023-10-20T21:56:36.122Z,99.90
2023-10-20T21:59:03.909Z,99.90
2023-10-20T22:01:31.503Z,99.90
2023-10-20T22:03:59.318Z,99.90
2023-10-20T22:06:26.909Z,99.90
2023-10-20T22:08:54.597Z,99.90
2023-10-20T22:11:22.343Z,99.90
2023-10-20T22:13:49.826Z,99.90
2023-10-20T22:16:18.106Z,99.90
2023-10-20T22:18:49.840Z,99.90
2023-10-20T22:21:17.693Z,99.90
2023-10-20T22:23:45.403Z,99.90
2023-10-20T22:26:13.014Z,99.90
2023-10-20T22:28:40.727Z,99.90
2023-10-20T22:31:10.314Z,99.90
2023-10-20T22:33:38.376Z,99.90
2023-10-20T22:36:06.385Z,99.90
2023-10-20T22:38:33.938Z,99.90
2023-10-20T22:41:01.564Z,99.90
2023-10-20T22:43:29.206Z,99.90
2023-10-20T22:46:00.221Z,99.90
2023-10-20T22:48:27.811Z,99.90
2023-10-20T22:50:55.484Z,99.90
2023-10-20T22:53:23.236Z,99.90
2023-10-20T22:55:50.884Z,99.90
2023-10-20T22:58:18.478Z,99.90
2023-10-20T23:00:46.175Z,99.90
2023-10-20T23:03:13.907Z,99.90
2023-10-20T23:05:41.657Z,99.90
2023-10-20T23:08:10.990Z,99.90
2023-10-20T23:10:38.750Z,99.90
2023-10-20T23:13:06.460Z,99.90
2023-10-20T23:15:41.944Z,99.90
2023-10-20T23:18:09.938Z,99.90
2023-10-20T23:20:37.809Z,99.90
2023-10-20T23:23:06.182Z,99.90
2023-10-20T23:25:37.565Z,99.90
2023-10-20T23:28:05.356Z,99.90
2023-10-20T23:30:32.875Z,99.90
2023-10-20T23:33:00.604Z,99.90
2023-10-20T23:35:28.283Z,99.90
2023-10-20T23:37:55.873Z,99.90
2023-10-20T23:40:23.771Z,99.90
2023-10-20T23:42:51.748Z,99.90
2023-10-20T23:45:19.299Z,99.90
2023-10-20T23:47:46.834Z,99.90
2023-10-20T23:50:14.424Z,99.90
2023-10-20T23:52:41.923Z,99.90
2023-10-20T23:55:09.748Z,99.90
2023-10-20T23:57:37.499Z,99.90
